Terminal Aerodrome Forecast
Issued by NWS Greer, SC

Home | Current Version | Previous Version | Text Only | Print | Product List | Glossary On
Versions: 1 2 3 4 5 6 7 8 9 10 11 12 13 14 15 16 17 18 19 20 21 22 23 24 25 26 27 28 29 30 31 32 33 34 35 36 37 38 39 40 41 42 43 44 45 46 47 48
000
FTUS42 KGSP 292112 AAA
TAFCLT
TAF AMD
KCLT 292112Z 2921/3018 14003KT P6SM SCT060 BKN100
      TEMPO 2921/2923 BKN060
     FM300300 10007KT P6SM BKN045
     FM300600 10007KT P6SM BKN015
     FM300800 10008KT P6SM OVC007
     FM301100 08008KT P6SM OVC015=

USA.gov is the U.S. government's official web portal to all federal, state and local government web resources and services.